sensor_id;sensor_type;location;lat;lon;timestamp;pressure;altitude;pressure_sealevel;temperature;humidity
38880;BME280;25887;30.194;-97.880;2023-07-20T00:00:06;98402.81;;;41.62;22.41
38880;BME280;25887;30.194;-97.880;2023-07-20T00:02:32;98397.63;;;41.61;22.58
38880;BME280;25887;30.194;-97.880;2023-07-20T00:04:58;98402.78;;;41.56;22.58
38880;BME280;25887;30.194;-97.880;2023-07-20T00:07:32;98399.88;;;41.51;22.69
38880;BME280;25887;30.194;-97.880;2023-07-20T00:13:45;98397.91;;;41.38;22.73
38880;BME280;25887;30.194;-97.880;2023-07-20T00:16:12;98394.09;;;41.32;22.76
38880;BME280;25887;30.194;-97.880;2023-07-20T00:18:38;98399.69;;;41.31;22.81
38880;BME280;25887;30.194;-97.880;2023-07-20T00:21:04;98394.88;;;41.26;22.70
38880;BME280;25887;30.194;-97.880;2023-07-20T00:23:30;98394.84;;;41.19;22.76
38880;BME280;25887;30.194;-97.880;2023-07-20T00:25:57;98398.28;;;41.13;22.60
38880;BME280;25887;30.194;-97.880;2023-07-20T00:28:23;98404.25;;;41.09;22.77
38880;BME280;25887;30.194;-97.880;2023-07-20T00:30:49;98403.00;;;41.05;22.83
38880;BME280;25887;30.194;-97.880;2023-07-20T00:33:17;98400.69;;;41.02;22.89
38880;BME280;25887;30.194;-97.880;2023-07-20T00:35:44;98411.22;;;40.97;22.94
38880;BME280;25887;30.194;-97.880;2023-07-20T00:38:10;98403.91;;;40.90;22.73
38880;BME280;25887;30.194;-97.880;2023-07-20T00:43:58;98405.66;;;40.83;23.34
38880;BME280;25887;30.194;-97.880;2023-07-20T00:46:28;98407.09;;;40.79;23.26
38880;BME280;25887;30.194;-97.880;2023-07-20T00:48:54;98413.88;;;40.75;23.47
38880;BME280;25887;30.194;-97.880;2023-07-20T00:51:23;98410.06;;;40.70;23.42
38880;BME280;25887;30.194;-97.880;2023-07-20T00:53:51;98403.63;;;40.64;23.69
38880;BME280;25887;30.194;-97.880;2023-07-20T00:56:36;98405.59;;;40.55;23.96
38880;BME280;25887;30.194;-97.880;2023-07-20T00:59:18;98410.91;;;40.49;24.08
38880;BME280;25887;30.194;-97.880;2023-07-20T01:01:56;98412.47;;;40.43;24.16
38880;BME280;25887;30.194;-97.880;2023-07-20T01:04:23;98414.72;;;40.40;24.17
38880;BME280;25887;30.194;-97.880;2023-07-20T01:09:51;98414.16;;;40.29;24.46
38880;BME280;25887;30.194;-97.880;2023-07-20T01:12:42;98413.44;;;40.21;24.42
38880;BME280;25887;30.194;-97.880;2023-07-20T01:15:09;98421.41;;;40.14;24.84
38880;BME280;25887;30.194;-97.880;2023-07-20T01:17:35;98419.47;;;40.08;24.35
38880;BME280;25887;30.194;-97.880;2023-07-20T01:23:57;98423.00;;;39.94;25.00
38880;BME280;25887;30.194;-97.880;2023-07-20T01:27:16;98414.66;;;39.89;25.12
38880;BME280;25887;30.194;-97.880;2023-07-20T01:30:36;98426.34;;;39.81;25.13
38880;BME280;25887;30.194;-97.880;2023-07-20T01:33:09;98427.25;;;39.73;25.29
38880;BME280;25887;30.194;-97.880;2023-07-20T01:35:38;98432.34;;;39.68;24.91
38880;BME280;25887;30.194;-97.880;2023-07-20T01:38:08;98427.53;;;39.64;25.18
38880;BME280;25887;30.194;-97.880;2023-07-20T01:40:35;98431.78;;;39.58;25.19
38880;BME280;25887;30.194;-97.880;2023-07-20T01:43:02;98434.00;;;39.54;25.65
38880;BME280;25887;30.194;-97.880;2023-07-20T01:45:28;98438.88;;;39.51;25.42
38880;BME280;25887;30.194;-97.880;2023-07-20T01:47:55;98433.06;;;39.47;25.58
38880;BME280;25887;30.194;-97.880;2023-07-20T01:50:21;98438.78;;;39.44;25.41
38880;BME280;25887;30.194;-97.880;2023-07-20T01:52:49;98441.84;;;39.41;25.25
38880;BME280;25887;30.194;-97.880;2023-07-20T01:55:15;98432.63;;;39.36;25.44
38880;BME280;25887;30.194;-97.880;2023-07-20T01:57:41;98437.75;;;39.31;25.41
38880;BME280;25887;30.194;-97.880;2023-07-20T02:00:08;98438.09;;;39.27;25.74
38880;BME280;25887;30.194;-97.880;2023-07-20T02:02:35;98448.38;;;39.24;25.67
38880;BME280;25887;30.194;-97.880;2023-07-20T02:05:01;98454.28;;;39.19;25.84
38880;BME280;25887;30.194;-97.880;2023-07-20T02:07:28;98457.84;;;39.12;26.16
38880;BME280;25887;30.194;-97.880;2023-07-20T02:09:54;98461.91;;;39.08;25.89
38880;BME280;25887;30.194;-97.880;2023-07-20T02:12:20;98459.09;;;39.01;25.79
38880;BME280;25887;30.194;-97.880;2023-07-20T02:14:47;98456.31;;;38.94;26.40
38880;BME280;25887;30.194;-97.880;2023-07-20T02:17:14;98463.88;;;38.91;26.42
38880;BME280;25887;30.194;-97.880;2023-07-20T02:19:41;98468.13;;;38.85;26.47
38880;BME280;25887;30.194;-97.880;2023-07-20T02:22:09;98466.97;;;38.80;26.24
38880;BME280;25887;30.194;-97.880;2023-07-20T02:24:35;98466.66;;;38.74;26.93
38880;BME280;25887;30.194;-97.880;2023-07-20T02:27:01;98471.03;;;38.67;26.54
38880;BME280;25887;30.194;-97.880;2023-07-20T02:29:29;98477.13;;;38.61;27.11
38880;BME280;25887;30.194;-97.880;2023-07-20T02:31:57;98481.34;;;38.56;27.31
38880;BME280;25887;30.194;-97.880;2023-07-20T02:34:23;98490.09;;;38.50;27.17
38880;BME280;25887;30.194;-97.880;2023-07-20T02:36:49;98498.69;;;38.45;27.89
38880;BME280;25887;30.194;-97.880;2023-07-20T02:39:15;98496.50;;;38.40;27.92
38880;BME280;25887;30.194;-97.880;2023-07-20T02:41:42;98500.91;;;38.33;28.31
38880;BME280;25887;30.194;-97.880;2023-07-20T02:44:08;98499.25;;;38.24;29.04
38880;BME280;25887;30.194;-97.880;2023-07-20T02:46:34;98502.28;;;38.13;29.31
38880;BME280;25887;30.194;-97.880;2023-07-20T02:49:01;98515.56;;;38.06;29.53
38880;BME280;25887;30.194;-97.880;2023-07-20T02:51:27;98514.72;;;37.98;29.55
38880;BME280;25887;30.194;-97.880;2023-07-20T02:53:53;98520.09;;;37.89;30.29
38880;BME280;25887;30.194;-97.880;2023-07-20T02:56:19;98529.00;;;37.82;30.66
38880;BME280;25887;30.194;-97.880;2023-07-20T02:58:46;98526.16;;;37.75;30.95
38880;BME280;25887;30.194;-97.880;2023-07-20T03:01:12;98525.28;;;37.67;30.98
38880;BME280;25887;30.194;-97.880;2023-07-20T03:03:38;98530.50;;;37.60;30.70
38880;BME280;25887;30.194;-97.880;2023-07-20T03:06:05;98539.41;;;37.52;31.11
38880;BME280;25887;30.194;-97.880;2023-07-20T03:08:31;98535.72;;;37.45;30.90
38880;BME280;25887;30.194;-97.880;2023-07-20T03:10:58;98555.31;;;37.38;30.77
38880;BME280;25887;30.194;-97.880;2023-07-20T03:13:24;98550.59;;;37.31;31.38
38880;BME280;25887;30.194;-97.880;2023-07-20T03:15:52;98547.69;;;37.25;31.31
38880;BME280;25887;30.194;-97.880;2023-07-20T03:18:18;98546.03;;;37.16;31.31
38880;BME280;25887;30.194;-97.880;2023-07-20T03:20:44;98546.00;;;37.07;31.22
38880;BME280;25887;30.194;-97.880;2023-07-20T03:23:11;98554.69;;;37.01;31.48
38880;BME280;25887;30.194;-97.880;2023-07-20T03:25:38;98549.84;;;36.97;31.41
38880;BME280;25887;30.194;-97.880;2023-07-20T03:28:04;98562.88;;;36.92;31.86
38880;BME280;25887;30.194;-97.880;2023-07-20T03:30:33;98564.19;;;36.88;31.76
38880;BME280;25887;30.194;-97.880;2023-07-20T03:33:00;98566.63;;;36.81;31.64
38880;BME280;25887;30.194;-97.880;2023-07-20T03:35:26;98570.00;;;36.75;31.43
38880;BME280;25887;30.194;-97.880;2023-07-20T03:37:52;98568.94;;;36.68;31.73
38880;BME280;25887;30.194;-97.880;2023-07-20T03:40:18;98569.59;;;36.62;31.75
38880;BME280;25887;30.194;-97.880;2023-07-20T03:42:45;98567.53;;;36.55;32.38
38880;BME280;25887;30.194;-97.880;2023-07-20T03:45:11;98586.44;;;36.54;32.40
38880;BME280;25887;30.194;-97.880;2023-07-20T03:47:46;98583.56;;;36.47;32.32
38880;BME280;25887;30.194;-97.880;2023-07-20T03:50:14;98582.53;;;36.40;32.68
38880;BME280;25887;30.194;-97.880;2023-07-20T03:52:40;98589.47;;;36.33;32.91
38880;BME280;25887;30.194;-97.880;2023-07-20T03:55:06;98593.66;;;36.27;33.37
38880;BME280;25887;30.194;-97.880;2023-07-20T03:57:33;98595.25;;;36.20;33.18
38880;BME280;25887;30.194;-97.880;2023-07-20T03:59:59;98602.06;;;36.15;33.33
38880;BME280;25887;30.194;-97.880;2023-07-20T04:02:25;98602.84;;;36.07;33.48
38880;BME280;25887;30.194;-97.880;2023-07-20T04:04:51;98614.72;;;36.05;33.54
38880;BME280;25887;30.194;-97.880;2023-07-20T04:07:18;98619.69;;;35.99;34.24
38880;BME280;25887;30.194;-97.880;2023-07-20T04:09:44;98619.16;;;35.96;34.05
38880;BME280;25887;30.194;-97.880;2023-07-20T04:12:10;98620.88;;;35.87;34.43
38880;BME280;25887;30.194;-97.880;2023-07-20T04:14:36;98627.72;;;35.82;34.20
38880;BME280;25887;30.194;-97.880;2023-07-20T04:17:03;98621.81;;;35.78;34.28
38880;BME280;25887;30.194;-97.880;2023-07-20T04:19:29;98631.16;;;35.74;34.55
38880;BME280;25887;30.194;-97.880;2023-07-20T04:21:55;98628.75;;;35.71;34.63
38880;BME280;25887;30.194;-97.880;2023-07-20T04:24:22;98638.38;;;35.64;34.91
38880;BME280;25887;30.194;-97.880;2023-07-20T04:26:48;98637.19;;;35.58;34.59
38880;BME280;25887;30.194;-97.880;2023-07-20T04:29:14;98640.97;;;35.56;35.07
38880;BME280;25887;30.194;-97.880;2023-07-20T04:31:40;98636.25;;;35.50;35.29
38880;BME280;25887;30.194;-97.880;2023-07-20T04:34:07;98642.50;;;35.40;35.04
38880;BME280;25887;30.194;-97.880;2023-07-20T04:36:33;98648.44;;;35.34;35.29
38880;BME280;25887;30.194;-97.880;2023-07-20T04:38:59;98651.69;;;35.28;35.44
38880;BME280;25887;30.194;-97.880;2023-07-20T04:41:46;98665.50;;;35.24;35.44
38880;BME280;25887;30.194;-97.880;2023-07-20T04:44:13;98658.22;;;35.16;35.55
38880;BME280;25887;30.194;-97.880;2023-07-20T04:46:40;98659.69;;;35.10;35.72
38880;BME280;25887;30.194;-97.880;2023-07-20T04:49:06;98658.44;;;35.05;36.02
38880;BME280;25887;30.194;-97.880;2023-07-20T04:51:32;98657.19;;;34.99;35.60
38880;BME280;25887;30.194;-97.880;2023-07-20T04:53:59;98665.66;;;34.95;35.87
38880;BME280;25887;30.194;-97.880;2023-07-20T04:56:25;98662.53;;;34.89;35.62
38880;BME280;25887;30.194;-97.880;2023-07-20T04:58:51;98663.97;;;34.84;35.91
38880;BME280;25887;30.194;-97.880;2023-07-20T05:01:17;98671.72;;;34.77;35.90
38880;BME280;25887;30.194;-97.880;2023-07-20T05:03:44;98676.78;;;34.71;35.90
38880;BME280;25887;30.194;-97.880;2023-07-20T05:06:10;98668.53;;;34.64;36.00
38880;BME280;25887;30.194;-97.880;2023-07-20T05:08:36;98670.94;;;34.57;36.69
38880;BME280;25887;30.194;-97.880;2023-07-20T05:11:03;98673.50;;;34.49;36.47
38880;BME280;25887;30.194;-97.880;2023-07-20T05:13:29;98671.56;;;34.42;36.40
38880;BME280;25887;30.194;-97.880;2023-07-20T05:15:55;98666.75;;;34.35;36.92
38880;BME280;25887;30.194;-97.880;2023-07-20T05:18:21;98681.22;;;34.33;36.52
38880;BME280;25887;30.194;-97.880;2023-07-20T05:20:48;98669.44;;;34.26;37.11
38880;BME280;25887;30.194;-97.880;2023-07-20T05:23:14;98675.88;;;34.23;37.45
38880;BME280;25887;30.194;-97.880;2023-07-20T05:25:41;98680.97;;;34.17;37.18
38880;BME280;25887;30.194;-97.880;2023-07-20T05:28:07;98673.94;;;34.16;37.47
38880;BME280;25887;30.194;-97.880;2023-07-20T05:30:33;98676.19;;;34.11;37.50
38880;BME280;25887;30.194;-97.880;2023-07-20T05:33:00;98681.78;;;34.07;38.07
38880;BME280;25887;30.194;-97.880;2023-07-20T05:35:26;98685.88;;;34.02;37.96
38880;BME280;25887;30.194;-97.880;2023-07-20T05:37:52;98690.09;;;33.95;38.34
38880;BME280;25887;30.194;-97.880;2023-07-20T05:40:18;98685.28;;;33.89;38.26
38880;BME280;25887;30.194;-97.880;2023-07-20T05:42:45;98690.19;;;33.84;38.72
38880;BME280;25887;30.194;-97.880;2023-07-20T05:45:14;98687.22;;;33.77;38.71
38880;BME280;25887;30.194;-97.880;2023-07-20T05:47:43;98684.16;;;33.72;38.74
38880;BME280;25887;30.194;-97.880;2023-07-20T05:50:10;98699.47;;;33.70;39.44
38880;BME280;25887;30.194;-97.880;2023-07-20T05:52:37;98709.53;;;33.66;38.93
38880;BME280;25887;30.194;-97.880;2023-07-20T05:55:05;98705.59;;;33.61;39.44
38880;BME280;25887;30.194;-97.880;2023-07-20T05:57:31;98719.34;;;33.56;39.35
38880;BME280;25887;30.194;-97.880;2023-07-20T05:59:57;98708.25;;;33.51;39.60
38880;BME280;25887;30.194;-97.880;2023-07-20T06:02:23;98718.34;;;33.47;39.73
38880;BME280;25887;30.194;-97.880;2023-07-20T06:04:50;98705.56;;;33.41;39.82
38880;BME280;25887;30.194;-97.880;2023-07-20T06:07:16;98717.19;;;33.40;40.19
38880;BME280;25887;30.194;-97.880;2023-07-20T06:09:42;98713.06;;;33.36;40.79
38880;BME280;25887;30.194;-97.880;2023-07-20T06:12:09;98707.19;;;33.33;40.61
38880;BME280;25887;30.194;-97.880;2023-07-20T06:14:35;98714.59;;;33.29;40.46
38880;BME280;25887;30.194;-97.880;2023-07-20T06:17:03;98715.84;;;33.25;40.66
38880;BME280;25887;30.194;-97.880;2023-07-20T06:19:29;98706.56;;;33.19;41.38
38880;BME280;25887;30.194;-97.880;2023-07-20T06:21:55;98714.84;;;33.16;41.46
38880;BME280;25887;30.194;-97.880;2023-07-20T06:24:21;98713.41;;;33.12;41.15
38880;BME280;25887;30.194;-97.880;2023-07-20T06:26:48;98723.75;;;33.06;41.60
38880;BME280;25887;30.194;-97.880;2023-07-20T06:29:14;98723.19;;;33.02;42.07
38880;BME280;25887;30.194;-97.880;2023-07-20T06:31:40;98720.78;;;32.99;42.09
38880;BME280;25887;30.194;-97.880;2023-07-20T06:34:07;98728.34;;;32.94;42.33
38880;BME280;25887;30.194;-97.880;2023-07-20T06:36:33;98734.88;;;32.90;42.20
38880;BME280;25887;30.194;-97.880;2023-07-20T06:38:59;98732.38;;;32.88;42.30
38880;BME280;25887;30.194;-97.880;2023-07-20T06:41:25;98733.47;;;32.86;42.61
38880;BME280;25887;30.194;-97.880;2023-07-20T06:43:51;98728.38;;;32.83;42.69
38880;BME280;25887;30.194;-97.880;2023-07-20T06:46:25;98719.00;;;32.79;42.75
38880;BME280;25887;30.194;-97.880;2023-07-20T06:49:02;98718.00;;;32.80;42.72
38880;BME280;25887;30.194;-97.880;2023-07-20T06:51:28;98722.63;;;32.78;42.57
38880;BME280;25887;30.194;-97.880;2023-07-20T06:53:54;98719.22;;;32.76;42.52
38880;BME280;25887;30.194;-97.880;2023-07-20T06:56:20;98721.88;;;32.76;42.94
38880;BME280;25887;30.194;-97.880;2023-07-20T06:58:46;98715.72;;;32.75;43.16
38880;BME280;25887;30.194;-97.880;2023-07-20T07:01:13;98724.81;;;32.72;43.12
38880;BME280;25887;30.194;-97.880;2023-07-20T07:03:40;98717.97;;;32.70;43.28
38880;BME280;25887;30.194;-97.880;2023-07-20T07:06:06;98719.88;;;32.68;43.28
38880;BME280;25887;30.194;-97.880;2023-07-20T07:08:33;98712.88;;;32.67;43.28
38880;BME280;25887;30.194;-97.880;2023-07-20T07:10:59;98725.34;;;32.66;43.40
38880;BME280;25887;30.194;-97.880;2023-07-20T07:13:25;98726.31;;;32.65;43.17
38880;BME280;25887;30.194;-97.880;2023-07-20T07:15:51;98722.50;;;32.58;43.44
38880;BME280;25887;30.194;-97.880;2023-07-20T07:18:18;98727.25;;;32.55;44.04
38880;BME280;25887;30.194;-97.880;2023-07-20T07:20:52;98733.41;;;32.55;44.01
38880;BME280;25887;30.194;-97.880;2023-07-20T07:23:19;98729.44;;;32.50;44.09
38880;BME280;25887;30.194;-97.880;2023-07-20T07:25:45;98719.31;;;32.43;44.58
38880;BME280;25887;30.194;-97.880;2023-07-20T07:28:12;98728.53;;;32.39;44.34
38880;BME280;25887;30.194;-97.880;2023-07-20T07:30:38;98733.03;;;32.39;44.95
38880;BME280;25887;30.194;-97.880;2023-07-20T07:33:05;98727.94;;;32.36;44.48
38880;BME280;25887;30.194;-97.880;2023-07-20T07:35:31;98728.91;;;32.35;44.95
38880;BME280;25887;30.194;-97.880;2023-07-20T07:37:57;98723.97;;;32.30;44.81
38880;BME280;25887;30.194;-97.880;2023-07-20T07:40:23;98732.06;;;32.29;45.23
38880;BME280;25887;30.194;-97.880;2023-07-20T07:42:49;98723.50;;;32.25;45.04
38880;BME280;25887;30.194;-97.880;2023-07-20T07:45:16;98719.53;;;32.20;45.53
38880;BME280;25887;30.194;-97.880;2023-07-20T07:47:42;98719.81;;;32.16;45.50
38880;BME280;25887;30.194;-97.880;2023-07-20T07:50:09;98728.75;;;32.15;45.92
38880;BME280;25887;30.194;-97.880;2023-07-20T07:52:36;98729.13;;;32.11;45.79
38880;BME280;25887;30.194;-97.880;2023-07-20T07:55:02;98730.22;;;32.08;45.73
38880;BME280;25887;30.194;-97.880;2023-07-20T07:57:29;98727.94;;;32.04;46.12
38880;BME280;25887;30.194;-97.880;2023-07-20T07:59:56;98726.25;;;32.03;46.14
38880;BME280;25887;30.194;-97.880;2023-07-20T08:02:22;98731.56;;;32.03;46.10
38880;BME280;25887;30.194;-97.880;2023-07-20T08:04:48;98731.72;;;32.01;46.35
38880;BME280;25887;30.194;-97.880;2023-07-20T08:07:16;98724.69;;;32.00;46.51
38880;BME280;25887;30.194;-97.880;2023-07-20T08:09:42;98720.47;;;31.98;46.54
38880;BME280;25887;30.194;-97.880;2023-07-20T08:12:09;98720.59;;;31.96;46.45
38880;BME280;25887;30.194;-97.880;2023-07-20T08:14:35;98714.72;;;31.93;46.90
38880;BME280;25887;30.194;-97.880;2023-07-20T08:17:01;98713.25;;;31.88;47.30
38880;BME280;25887;30.194;-97.880;2023-07-20T08:19:28;98713.53;;;31.85;47.46
38880;BME280;25887;30.194;-97.880;2023-07-20T08:21:54;98715.22;;;31.86;47.37
38880;BME280;25887;30.194;-97.880;2023-07-20T08:24:20;98715.34;;;31.85;47.29
38880;BME280;25887;30.194;-97.880;2023-07-20T08:26:46;98723.66;;;31.80;47.45
38880;BME280;25887;30.194;-97.880;2023-07-20T08:29:12;98707.16;;;31.77;47.68
38880;BME280;25887;30.194;-97.880;2023-07-20T08:31:39;98715.31;;;31.74;47.68
38880;BME280;25887;30.194;-97.880;2023-07-20T08:34:05;98713.63;;;31.73;47.74
38880;BME280;25887;30.194;-97.880;2023-07-20T08:36:32;98718.25;;;31.71;48.17
38880;BME280;25887;30.194;-97.880;2023-07-20T08:38:58;98722.84;;;31.69;48.11
38880;BME280;25887;30.194;-97.880;2023-07-20T08:41:27;98734.31;;;31.69;47.92
38880;BME280;25887;30.194;-97.880;2023-07-20T08:43:54;98733.47;;;31.69;48.29
38880;BME280;25887;30.194;-97.880;2023-07-20T08:46:23;98726.56;;;31.66;48.01
38880;BME280;25887;30.194;-97.880;2023-07-20T08:48:55;98730.34;;;31.64;48.44
38880;BME280;25887;30.194;-97.880;2023-07-20T08:51:22;98719.97;;;31.60;48.36
38880;BME280;25887;30.194;-97.880;2023-07-20T08:53:51;98713.91;;;31.58;48.24
38880;BME280;25887;30.194;-97.880;2023-07-20T08:56:18;98703.41;;;31.57;48.57
38880;BME280;25887;30.194;-97.880;2023-07-20T08:58:46;98710.69;;;31.55;48.67
38880;BME280;25887;30.194;-97.880;2023-07-20T09:01:13;98707.41;;;31.51;48.61
38880;BME280;25887;30.194;-97.880;2023-07-20T09:03:40;98699.69;;;31.48;49.08
38880;BME280;25887;30.194;-97.880;2023-07-20T09:06:08;98697.16;;;31.47;49.15
38880;BME280;25887;30.194;-97.880;2023-07-20T09:08:38;98694.75;;;31.44;49.27
38880;BME280;25887;30.194;-97.880;2023-07-20T09:11:04;98701.88;;;31.43;49.04
38880;BME280;25887;30.194;-97.880;2023-07-20T09:13:33;98699.34;;;31.42;49.31
38880;BME280;25887;30.194;-97.880;2023-07-20T09:16:00;98702.13;;;31.40;49.42
38880;BME280;25887;30.194;-97.880;2023-07-20T09:18:32;98694.41;;;31.37;49.23
38880;BME280;25887;30.194;-97.880;2023-07-20T09:21:04;98698.28;;;31.33;49.56
38880;BME280;25887;30.194;-97.880;2023-07-20T09:23:56;98707.22;;;31.32;49.57
38880;BME280;25887;30.194;-97.880;2023-07-20T09:26:23;98707.69;;;31.26;49.61
38880;BME280;25887;30.194;-97.880;2023-07-20T09:28:52;98719.41;;;31.23;49.93
38880;BME280;25887;30.194;-97.880;2023-07-20T09:31:21;98722.91;;;31.24;49.74
38880;BME280;25887;30.194;-97.880;2023-07-20T09:33:49;98718.56;;;31.23;49.79
38880;BME280;25887;30.194;-97.880;2023-07-20T09:36:16;98722.91;;;31.24;49.87
38880;BME280;25887;30.194;-97.880;2023-07-20T09:38:42;98724.84;;;31.22;49.75
38880;BME280;25887;30.194;-97.880;2023-07-20T09:41:15;98729.38;;;31.20;49.99
38880;BME280;25887;30.194;-97.880;2023-07-20T09:43:42;98719.72;;;31.19;49.92
38880;BME280;25887;30.194;-97.880;2023-07-20T09:46:08;98719.72;;;31.19;50.25
38880;BME280;25887;30.194;-97.880;2023-07-20T09:48:34;98721.66;;;31.17;50.01
38880;BME280;25887;30.194;-97.880;2023-07-20T09:51:01;98719.16;;;31.15;50.03
38880;BME280;25887;30.194;-97.880;2023-07-20T09:53:28;98722.88;;;31.13;50.04
38880;BME280;25887;30.194;-97.880;2023-07-20T09:55:55;98716.84;;;31.11;50.14
38880;BME280;25887;30.194;-97.880;2023-07-20T09:58:23;98719.50;;;31.11;50.14
38880;BME280;25887;30.194;-97.880;2023-07-20T10:00:52;98718.78;;;31.09;50.13
38880;BME280;25887;30.194;-97.880;2023-07-20T10:03:22;98715.41;;;31.06;50.47
38880;BME280;25887;30.194;-97.880;2023-07-20T10:05:57;98705.75;;;31.05;50.34
38880;BME280;25887;30.194;-97.880;2023-07-20T10:08:27;98698.03;;;31.02;50.12
38880;BME280;25887;30.194;-97.880;2023-07-20T10:10:54;98699.97;;;31.00;50.41
38880;BME280;25887;30.194;-97.880;2023-07-20T10:13:27;98701.91;;;30.98;50.67
38880;BME280;25887;30.194;-97.880;2023-07-20T10:15:59;98696.09;;;30.93;50.64
38880;BME280;25887;30.194;-97.880;2023-07-20T10:19:02;98693.44;;;30.93;50.49
38880;BME280;25887;30.194;-97.880;2023-07-20T10:21:29;98690.19;;;30.90;50.51
38880;BME280;25887;30.194;-97.880;2023-07-20T10:24:28;98694.63;;;30.89;50.48
38880;BME280;25887;30.194;-97.880;2023-07-20T10:26:55;98695.00;;;30.85;51.06
38880;BME280;25887;30.194;-97.880;2023-07-20T10:29:22;98706.72;;;30.82;51.17
38880;BME280;25887;30.194;-97.880;2023-07-20T10:31:50;98708.50;;;30.82;50.70
38880;BME280;25887;30.194;-97.880;2023-07-20T10:34:16;98708.50;;;30.82;51.07
38880;BME280;25887;30.194;-97.880;2023-07-20T10:36:46;98715.63;;;30.81;50.90
38880;BME280;25887;30.194;-97.880;2023-07-20T10:39:23;98718.19;;;30.83;50.78
38880;BME280;25887;30.194;-97.880;2023-07-20T10:42:09;98718.19;;;30.83;50.71
38880;BME280;25887;30.194;-97.880;2023-07-20T10:44:42;98718.28;;;30.81;50.87
38880;BME280;25887;30.194;-97.880;2023-07-20T10:47:12;98714.91;;;30.79;50.96
38880;BME280;25887;30.194;-97.880;2023-07-20T10:49:57;98716.38;;;30.83;50.86
38880;BME280;25887;30.194;-97.880;2023-07-20T10:52:24;98707.78;;;30.79;51.01
38880;BME280;25887;30.194;-97.880;2023-07-20T10:54:50;98716.59;;;30.80;51.30
38880;BME280;25887;30.194;-97.880;2023-07-20T10:57:42;98714.69;;;30.82;51.08
38880;BME280;25887;30.194;-97.880;2023-07-20T11:00:13;98726.34;;;30.79;51.16
38880;BME280;25887;30.194;-97.880;2023-07-20T11:02:58;98727.06;;;30.82;50.97
38880;BME280;25887;30.194;-97.880;2023-07-20T11:05:34;98723.81;;;30.78;51.19
38880;BME280;25887;30.194;-97.880;2023-07-20T11:08:04;98729.13;;;30.78;51.33
38880;BME280;25887;30.194;-97.880;2023-07-20T11:11:22;98725.38;;;30.81;51.04
38880;BME280;25887;30.194;-97.880;2023-07-20T11:14:02;98725.63;;;30.77;51.06
38880;BME280;25887;30.194;-97.880;2023-07-20T11:16:42;98726.59;;;30.76;51.38
38880;BME280;25887;30.194;-97.880;2023-07-20T11:19:22;98716.13;;;30.75;51.12
38880;BME280;25887;30.194;-97.880;2023-07-20T11:21:55;98726.22;;;30.70;51.46
38880;BME280;25887;30.194;-97.880;2023-07-20T11:24:22;98721.16;;;30.67;51.32
38880;BME280;25887;30.194;-97.880;2023-07-20T11:26:54;98720.38;;;30.65;51.57
38880;BME280;25887;30.194;-97.880;2023-07-20T11:29:22;98732.34;;;30.59;51.55
38880;BME280;25887;30.194;-97.880;2023-07-20T11:31:50;98721.09;;;30.56;51.69
38880;BME280;25887;30.194;-97.880;2023-07-20T11:34:19;98717.72;;;30.54;51.84
38880;BME280;25887;30.194;-97.880;2023-07-20T11:36:50;98723.25;;;30.50;51.83
38880;BME280;25887;30.194;-97.880;2023-07-20T11:39:18;98719.03;;;30.48;51.83
38880;BME280;25887;30.194;-97.880;2023-07-20T11:44:22;98723.88;;;30.43;51.92
38880;BME280;25887;30.194;-97.880;2023-07-20T11:47:06;98717.81;;;30.41;51.77
38880;BME280;25887;30.194;-97.880;2023-07-20T11:49:41;98730.47;;;30.37;52.16
38880;BME280;25887;30.194;-97.880;2023-07-20T11:52:14;98741.91;;;30.38;51.82
38880;BME280;25887;30.194;-97.880;2023-07-20T11:54:42;98746.38;;;30.37;51.94
38880;BME280;25887;30.194;-97.880;2023-07-20T11:57:19;98741.28;;;30.34;51.87
38880;BME280;25887;30.194;-97.880;2023-07-20T11:59:55;98742.03;;;30.36;51.83
38880;BME280;25887;30.194;-97.880;2023-07-20T12:02:27;98747.53;;;30.33;52.04
38880;BME280;25887;30.194;-97.880;2023-07-20T12:04:54;98753.69;;;30.34;51.83
38880;BME280;25887;30.194;-97.880;2023-07-20T12:07:21;98754.66;;;30.33;51.55
38880;BME280;25887;30.194;-97.880;2023-07-20T12:10:06;98757.94;;;30.36;51.82
38880;BME280;25887;30.194;-97.880;2023-07-20T12:12:34;98757.19;;;30.34;52.32
38880;BME280;25887;30.194;-97.880;2023-07-20T12:15:32;98757.94;;;30.36;51.49
38880;BME280;25887;30.194;-97.880;2023-07-20T12:18:00;98765.06;;;30.36;51.72
38880;BME280;25887;30.194;-97.880;2023-07-20T12:23:19;98769.50;;;30.35;52.12
38880;BME280;25887;30.194;-97.880;2023-07-20T12:25:45;98773.84;;;30.36;51.95
38880;BME280;25887;30.194;-97.880;2023-07-20T12:28:16;98763.25;;;30.36;51.95
38880;BME280;25887;30.194;-97.880;2023-07-20T12:30:44;98774.69;;;30.37;51.81
38880;BME280;25887;30.194;-97.880;2023-07-20T12:33:11;98774.69;;;30.37;52.10
38880;BME280;25887;30.194;-97.880;2023-07-20T12:35:41;98781.56;;;30.39;51.82
38880;BME280;25887;30.194;-97.880;2023-07-20T12:38:09;98785.91;;;30.40;51.94
38880;BME280;25887;30.194;-97.880;2023-07-20T12:40:35;98786.88;;;30.39;51.87
38880;BME280;25887;30.194;-97.880;2023-07-20T12:43:02;98783.25;;;30.40;52.00
38880;BME280;25887;30.194;-97.880;2023-07-20T12:45:28;98793.66;;;30.43;51.96
38880;BME280;25887;30.194;-97.880;2023-07-20T12:47:54;98786.63;;;30.42;52.01
38880;BME280;25887;30.194;-97.880;2023-07-20T12:50:20;98789.28;;;30.42;52.21
38880;BME280;25887;30.194;-97.880;2023-07-20T12:52:47;98804.00;;;30.46;52.06
38880;BME280;25887;30.194;-97.880;2023-07-20T12:55:13;98805.69;;;30.47;52.23
38880;BME280;25887;30.194;-97.880;2023-07-20T12:57:41;98810.75;;;30.50;52.17
38880;BME280;25887;30.194;-97.880;2023-07-20T13:00:10;98807.88;;;30.54;52.19
38880;BME280;25887;30.194;-97.880;2023-07-20T13:02:39;98810.94;;;30.60;52.55
38880;BME280;25887;30.194;-97.880;2023-07-20T13:05:05;98812.94;;;30.81;52.08
38880;BME280;25887;30.194;-97.880;2023-07-20T13:07:36;98812.97;;;30.92;51.75